Time;durP1;ratioP1;P1;durP2;ratioP2;P2;SDS_P1;SDS_P2;PMS_P1;PMS_P2;Temp;Humidity;BMP_temperature;BMP_pressure;BME280_temperature;BME280_humidity;BME280_pressure;Samples;Min_cycle;Max_cycle;Signal;HPM_P1;HPM_P2
2022/11/22 00:00:42;;;;;;;3.00;2.80;;;7.50;99.90;;;7.46;67.18;94446.66;5044802;28;20454;-56
2022/11/22 00:03:10;;;;;;;2.70;2.50;;;7.50;99.90;;;7.45;67.24;94439.75;5045499;28;20519;-55
2022/11/22 00:05:42;;;;;;;3.00;2.80;;;7.50;99.90;;;7.44;67.66;94431.09;5048111;28;20506;-55
2022/11/22 00:08:14;;;;;;;2.80;2.60;;;7.50;99.90;;;7.44;67.71;94425.03;5050197;28;20501;-56
2022/11/22 00:10:43;;;;;;;3.00;2.80;;;7.50;99.90;;;7.44;67.41;94431.09;5048139;28;20454;-55
2022/11/22 00:13:15;;;;;;;3.53;3.20;;;7.50;99.90;;;7.42;67.58;94440.88;5047424;28;20456;-56
2022/11/22 00:15:44;;;;;;;3.70;2.30;;;7.50;99.90;;;7.42;67.93;94443.47;5051485;28;20869;-55
2022/11/22 00:18:13;;;;;;;2.57;2.37;;;7.50;99.90;;;7.43;68.12;94449.53;5050496;28;20455;-56
2022/11/22 00:20:44;;;;;;;2.63;2.50;;;7.50;99.90;;;7.44;67.45;94441.56;5049605;28;20440;-55
2022/11/22 00:23:12;;;;;;;2.90;2.70;;;7.50;99.90;;;7.45;68.29;94448.44;5052273;28;20488;-55
2022/11/22 00:25:40;;;;;;;1.97;1.87;;;7.50;99.90;;;7.44;67.68;94441.56;5046886;28;20542;-56
2022/11/22 00:28:07;;;;;;;2.63;2.50;;;7.50;99.90;;;7.45;67.39;94447.59;5048755;28;20993;-57
2022/11/22 00:30:34;;;;;;;2.50;2.30;;;7.50;99.90;;;7.45;67.80;94438.00;5048784;28;20476;-54
2022/11/22 00:33:01;;;;;;;2.07;1.97;;;7.50;99.90;;;7.44;67.05;94436.31;5048262;28;20925;-56
2022/11/22 00:35:29;;;;;;;2.30;2.20;;;7.50;99.90;;;7.43;68.17;94439.88;5047775;28;20525;-58
2022/11/22 00:37:57;;;;;;;2.50;2.40;;;7.50;99.90;;;7.44;67.80;94454.63;5048287;28;20662;-57
2022/11/22 00:40:25;;;;;;;2.30;2.10;;;7.50;99.90;;;7.42;67.38;94446.09;5044669;28;20463;-54
2022/11/22 00:42:52;;;;;;;2.10;2.00;;;7.50;99.90;;;7.41;67.94;94447.03;5047537;28;20486;-56
2022/11/22 00:45:19;;;;;;;2.53;2.33;;;7.50;99.90;;;7.41;67.52;94441.81;5047542;28;20475;-56
2022/11/22 00:47:46;;;;;;;2.40;2.30;;;7.50;99.90;;;7.40;67.62;94445.38;5047996;28;20540;-57
2022/11/22 00:50:13;;;;;;;2.80;2.60;;;7.50;99.90;;;7.38;67.46;94442.06;5047937;28;20621;-56
2022/11/22 00:52:41;;;;;;;2.30;2.20;;;7.40;99.90;;;7.38;67.43;94442.06;5047685;28;20447;-57
2022/11/22 00:55:10;;;;;;;2.70;2.50;;;7.50;99.90;;;7.36;67.92;94434.34;5047938;28;20740;-57
2022/11/22 00:57:37;;;;;;;2.47;2.37;;;7.40;99.90;;;7.34;67.98;94436.28;5047211;28;20466;-58
2022/11/22 01:00:06;;;;;;;2.20;2.03;;;7.40;99.90;;;7.32;67.70;94432.13;5047704;28;20467;-57
2022/11/22 01:02:33;;;;;;;2.10;2.00;;;7.40;99.90;;;7.30;67.32;94434.06;5047234;28;20976;-56
2022/11/22 01:05:01;;;;;;;1.87;1.77;;;7.30;99.90;;;7.30;67.66;94441.91;5047222;28;20578;-56
2022/11/22 01:07:28;;;;;;;1.90;1.80;;;7.40;99.90;;;7.27;67.67;94437.75;5047609;28;20455;-57
2022/11/22 01:09:55;;;;;;;2.13;2.03;;;7.30;99.90;;;7.26;67.84;94440.50;5047745;28;20476;-56
2022/11/22 01:12:24;;;;;;;2.10;2.00;;;7.30;99.90;;;7.23;67.60;94435.53;5047550;28;20916;-56
2022/11/22 01:14:51;;;;;;;2.00;1.90;;;7.30;99.90;;;7.21;67.08;94435.66;5046864;28;20822;-56
2022/11/22 01:17:18;;;;;;;2.27;1.93;;;7.30;99.90;;;7.17;67.75;94442.94;5046089;28;20452;-56
2022/11/22 01:19:46;;;;;;;2.10;1.90;;;7.20;99.90;;;7.17;67.20;94439.47;5047136;28;20497;-59
2022/11/22 01:22:13;;;;;;;2.00;1.90;;;7.30;99.90;;;7.17;67.33;94440.34;5047268;28;20451;-56
2022/11/22 01:24:40;;;;;;;2.07;1.97;;;7.20;99.90;;;7.17;67.42;94435.09;5047074;28;20490;-56
2022/11/22 01:27:07;;;;;;;2.20;2.10;;;7.20;99.90;;;7.20;67.33;94436.59;5043157;28;20633;-56
2022/11/22 01:29:36;;;;;;;2.83;2.63;;;7.30;99.90;;;7.16;67.27;94430.81;5043169;28;21094;-56
2022/11/22 01:32:03;;;;;;;1.83;1.73;;;7.20;99.90;;;7.13;67.39;94432.88;5046808;28;20859;-57
2022/11/22 01:34:31;;;;;;;2.50;2.40;;;7.20;99.90;;;7.09;67.15;94434.91;5046684;28;20487;-56
2022/11/22 01:36:58;;;;;;;2.20;2.10;;;7.20;99.90;;;7.06;67.78;94431.72;5046604;28;20957;-55
2022/11/22 01:39:25;;;;;;;2.40;2.30;;;7.10;99.90;;;7.03;67.09;94429.38;5047226;28;20487;-56
2022/11/22 01:41:53;;;;;;;2.40;2.30;;;7.10;99.90;;;7.00;67.36;94417.38;5046627;28;20451;-56
2022/11/22 01:44:21;;;;;;;2.77;2.67;;;7.10;99.90;;;6.98;67.87;94427.13;5046141;28;20492;-56
2022/11/22 01:46:51;;;;;;;2.50;2.30;;;7.10;99.90;;;6.95;67.26;94415.16;5046793;28;20471;-56
2022/11/22 01:49:25;;;;;;;2.50;2.30;;;7.00;99.90;;;6.94;67.72;94420.50;5046309;28;20541;-57
2022/11/22 01:51:54;;;;;;;2.40;2.30;;;7.00;99.90;;;6.93;67.98;94414.44;5046657;28;20467;-55
2022/11/22 01:54:24;;;;;;;2.60;2.43;;;7.00;99.90;;;6.91;67.26;94413.75;5046080;28;20559;-56
2022/11/22 01:56:54;;;;;;;2.50;2.37;;;7.00;99.90;;;6.88;67.17;94410.56;5045507;28;20439;-56
2022/11/22 01:59:24;;;;;;;2.63;2.53;;;7.00;99.90;;;6.84;67.69;94403.94;5046329;28;20907;-56
2022/11/22 02:01:53;;;;;;;2.60;2.50;;;6.90;99.90;;;6.80;67.32;94401.59;5044281;28;20440;-56
2022/11/22 02:04:20;;;;;;;2.57;2.37;;;6.90;99.90;;;6.75;68.21;94419.44;5046058;28;20483;-56
2022/11/22 02:06:51;;;;;;;2.70;2.50;;;6.80;99.90;;;6.73;67.90;94417.91;5046841;28;20452;-56
2022/11/22 02:09:18;;;;;;;2.73;2.60;;;6.80;99.90;;;6.67;67.71;94414.00;5046311;28;20491;-55
2022/11/22 02:11:49;;;;;;;2.50;2.40;;;6.80;99.90;;;6.63;67.65;94420.44;5046433;28;20452;-56
2022/11/22 02:14:17;;;;;;;3.30;3.10;;;6.70;99.90;;;6.62;68.38;94413.56;5045340;28;20487;-56
2022/11/22 02:16:44;;;;;;;2.53;2.43;;;6.70;99.90;;;6.58;68.17;94415.63;5046123;28;20513;-56
2022/11/22 02:19:15;;;;;;;2.40;2.30;;;6.70;99.90;;;6.61;67.87;94417.94;5045592;28;20472;-56
2022/11/22 02:21:43;;;;;;;2.90;2.67;;;6.70;99.90;;;6.61;67.66;94420.56;5046482;28;20969;-57
2022/11/22 02:24:13;;;;;;;2.83;2.63;;;6.70;99.90;;;6.60;67.74;94411.09;5045681;28;20565;-56
2022/11/22 02:26:42;;;;;;;2.70;2.50;;;6.70;99.90;;;6.60;68.33;94410.25;5045940;28;20460;-57
2022/11/22 02:29:09;;;;;;;3.43;3.13;;;6.70;99.90;;;6.59;68.29;94413.84;5045386;28;20474;-56
2022/11/22 02:31:42;;;;;;;6.67;2.27;;;6.70;99.90;;;6.59;67.74;94408.59;5046150;28;20858;-57
2022/11/22 02:34:09;;;;;;;2.37;2.17;;;6.70;99.90;;;6.56;68.20;94409.69;5045344;28;20562;-56
2022/11/22 02:36:41;;;;;;;2.83;2.60;;;6.70;99.90;;;6.56;67.68;94406.25;5046023;28;20456;-56
2022/11/22 02:39:09;;;;;;;2.40;2.20;;;6.70;99.90;;;6.55;68.18;94409.81;5045821;28;20471;-56
2022/11/22 02:41:36;;;;;;;2.63;2.47;;;6.60;99.90;;;6.55;68.13;94413.28;5045567;28;20462;-55
2022/11/22 02:44:06;;;;;;;2.40;2.30;;;6.60;99.90;;;6.54;68.60;94410.78;5041497;28;20975;-55
2022/11/22 02:46:33;;;;;;;2.20;2.10;;;6.60;99.90;;;6.51;68.28;94404.00;5042443;28;20510;-56
2022/11/22 02:49:00;;;;;;;2.50;2.40;;;6.60;99.90;;;6.50;68.31;94406.75;5045799;28;20476;-56
2022/11/22 02:51:28;;;;;;;2.23;2.13;;;6.60;99.90;;;6.48;67.81;94406.06;5046075;28;20964;-56
2022/11/22 02:53:55;;;;;;;2.60;2.40;;;6.60;99.90;;;6.45;68.45;94397.50;5045266;28;20533;-57
2022/11/22 02:56:22;;;;;;;2.90;2.73;;;6.60;99.90;;;6.43;67.65;94399.41;5045421;28;20470;-57
2022/11/22 02:58:50;;;;;;;3.00;2.80;;;6.60;99.90;;;6.41;67.79;94405.72;5045392;28;20470;-56
2022/11/22 03:01:18;;;;;;;3.03;2.90;;;6.50;99.90;;;6.40;67.86;94409.31;5045774;28;20455;-56
2022/11/22 03:03:46;;;;;;;2.67;2.47;;;6.50;99.90;;;6.37;68.32;94399.09;5042480;28;20492;-56
2022/11/22 03:06:13;;;;;;;2.20;2.10;;;6.50;99.90;;;6.36;67.71;94397.44;5046264;28;20529;-57
2022/11/22 03:08:41;;;;;;;2.33;2.23;;;6.50;99.90;;;6.33;67.60;94397.69;5045704;28;20472;-59
2022/11/22 03:11:08;;;;;;;2.23;2.13;;;6.50;99.90;;;6.30;67.77;94395.31;5045751;28;20452;-58
2022/11/22 03:13:36;;;;;;;2.63;2.53;;;6.40;99.90;;;6.29;68.45;94402.34;5045066;28;20482;-58
2022/11/22 03:16:03;;;;;;;2.40;2.23;;;6.40;99.90;;;6.27;67.71;94389.41;5046199;28;20509;-59
2022/11/22 03:18:33;;;;;;;2.47;2.37;;;6.40;99.90;;;6.28;67.88;94385.00;5045393;28;20514;-55
2022/11/22 03:21:02;;;;;;;2.97;2.80;;;6.40;99.90;;;6.27;68.10;94385.94;5045689;28;20467;-57
2022/11/22 03:23:29;;;;;;;2.97;2.77;;;6.40;99.90;;;6.27;68.47;94389.41;5044847;28;21073;-56
2022/11/22 03:25:57;;;;;;;2.40;2.30;;;6.40;99.90;;;6.28;68.59;94390.22;5043315;28;20972;-58
2022/11/22 03:28:24;;;;;;;3.10;2.90;;;6.40;99.90;;;6.28;67.99;94385.00;5044936;28;20964;-55
2022/11/22 03:30:51;;;;;;;3.30;3.10;;;6.40;99.90;;;6.28;68.10;94390.22;5042932;28;20459;-57
2022/11/22 03:33:18;;;;;;;5.50;3.13;;;6.40;99.90;;;6.27;67.89;94394.63;5042395;28;20475;-56
2022/11/22 03:35:47;;;;;;;2.80;2.60;;;6.40;99.90;;;6.26;68.21;94382.53;5042775;28;20452;-55
2022/11/22 03:38:14;;;;;;;4.17;3.83;;;6.40;99.90;;;6.27;68.50;94383.34;5041872;28;20452;-56
2022/11/22 03:40:46;;;;;;;7.00;3.40;;;6.40;99.90;;;6.27;67.88;94388.56;5044289;28;20447;-56
2022/11/22 03:43:13;;;;;;;8.30;4.20;;;6.40;99.90;;;6.25;68.27;94393.91;5048051;28;20509;-56
2022/11/22 03:45:45;;;;;;;7.50;4.43;;;6.40;99.90;;;6.25;68.37;94398.31;5046572;28;20505;-56
2022/11/22 03:48:12;;;;;;;9.37;4.30;;;6.30;99.90;;;6.24;68.03;94391.44;5045648;28;20474;-58
2022/11/22 03:50:39;;;;;;;8.30;4.80;;;6.40;99.90;;;6.25;67.83;94390.47;5047765;28;20467;-56
2022/11/22 03:53:08;;;;;;;6.70;4.90;;;6.40;99.90;;;6.23;67.97;94393.22;5045057;28;21022;-56
2022/11/22 03:55:35;;;;;;;8.70;4.47;;;6.30;99.90;;;6.23;67.82;94400.22;5048226;28;20996;-57
2022/11/22 03:58:03;;;;;;;10.93;5.27;;;6.30;99.90;;;6.20;68.13;94397.88;5044362;28;20513;-57
2022/11/22 04:00:30;;;;;;;6.33;4.07;;;6.30;99.90;;;6.19;68.51;94401.44;5044218;28;20471;-56
2022/11/22 04:02:57;;;;;;;6.43;4.13;;;6.30;99.90;;;6.18;68.36;94404.97;5045475;28;20443;-56
2022/11/22 04:05:24;;;;;;;5.63;4.07;;;6.30;99.90;;;6.15;68.07;94402.63;5048487;28;20499;-57
2022/11/22 04:07:54;;;;;;;11.23;4.20;;;6.30;99.90;;;6.13;68.43;94407.97;5044919;28;20462;-56
2022/11/22 04:10:23;;;;;;;12.03;4.50;;;6.20;99.90;;;6.12;67.73;94405.47;5044174;28;20468;-56
2022/11/22 04:12:51;;;;;;;10.80;4.30;;;6.20;99.90;;;6.09;67.92;94417.03;5045282;28;20460;-57
2022/11/22 04:15:18;;;;;;;7.20;4.30;;;6.20;99.90;;;6.07;68.25;94408.47;5044816;28;20495;-57
2022/11/22 04:17:46;;;;;;;4.33;3.93;;;6.20;99.90;;;6.05;68.28;94410.38;5044601;28;20445;-57
2022/11/22 04:23:03;;;;;;;6.63;4.37;;;6.20;99.90;;;6.01;68.07;94412.41;5046289;28;20432;-57
2022/11/22 04:25:32;;;;;;;6.50;4.97;;;6.10;99.90;;;5.99;68.18;94416.91;5048488;28;20614;-57
2022/11/22 04:28:00;;;;;;;7.63;4.57;;;6.10;99.90;;;5.97;68.71;94421.44;5048184;28;20451;-56
2022/11/22 04:33:08;;;;;;;9.17;4.10;;;6.10;99.90;;;5.92;68.19;94427.00;5044281;28;20431;-56
2022/11/22 04:35:36;;;;;;;14.20;3.77;;;6.00;99.90;;;5.92;67.87;94432.22;5047664;28;20544;-56
2022/11/22 04:38:03;;;;;;;5.97;4.27;;;6.10;99.90;;;5.92;68.14;94441.81;5048210;28;20459;-57
2022/11/22 04:40:32;;;;;;;5.97;4.43;;;6.00;99.90;;;5.91;68.83;94430.53;5047259;28;20475;-56
2022/11/22 04:45:44;;;;;;;4.00;3.70;;;6.00;99.90;;;5.89;68.04;94444.69;5047460;28;20548;-56
2022/11/22 04:48:11;;;;;;;6.90;4.20;;;6.00;99.90;;;5.83;67.71;94453.00;5047716;28;20885;-55
2022/11/22 04:53:24;;;;;;;7.00;5.27;;;5.90;99.90;;;5.73;67.88;94453.72;5045211;28;20435;-56
2022/11/22 04:55:52;;;;;;;7.57;5.00;;;5.90;99.90;;;5.66;67.92;94465.56;5047858;28;20456;-57
2022/11/22 04:58:20;;;;;;;64.67;36.97;;;5.80;99.90;;;5.62;68.24;94456.31;5047667;28;20513;-56
2022/11/22 05:00:47;;;;;;;6.87;6.20;;;5.80;99.90;;;5.57;67.93;94468.91;5047099;28;20602;-55
2022/11/22 05:03:15;;;;;;;6.37;5.20;;;5.70;99.90;;;5.52;68.00;94476.28;5046232;28;20526;-55
2022/11/22 05:05:43;;;;;;;5.50;5.00;;;5.70;99.90;;;5.47;68.68;94478.38;5047537;28;20510;-55
2022/11/22 05:08:11;;;;;;;5.70;4.70;;;5.60;99.90;;;5.44;68.57;94489.06;5047935;28;20479;-56
2022/11/22 05:13:22;;;;;;;5.50;5.00;;;5.60;99.90;;;5.45;69.11;94485.50;5045231;28;20531;-56
2022/11/22 05:15:50;;;;;;;6.50;4.90;;;5.60;99.90;;;5.45;69.20;94485.50;5047400;28;20447;-57
2022/11/22 05:18:18;;;;;;;6.83;4.53;;;5.60;99.90;;;5.45;69.02;94486.31;5048152;28;20805;-56
2022/11/22 05:20:45;;;;;;;7.63;4.97;;;5.60;99.90;;;5.46;69.16;94487.19;5041397;28;20526;-57
2022/11/22 05:25:57;;;;;;;9.50;7.70;;;5.60;99.90;;;5.44;68.95;94471.66;5041963;28;20564;-57
2022/11/22 05:28:28;;;;;;;8.93;6.80;;;5.60;99.90;;;5.42;68.95;94475.31;5045401;28;20893;-56
2022/11/22 05:30:55;;;;;;;16.03;8.70;;;5.60;99.90;;;5.42;69.38;94475.31;5043414;28;20515;-57
2022/11/22 05:33:23;;;;;;;10.17;7.30;;;5.60;99.90;;;5.42;69.21;94475.31;5048368;28;20521;-56
2022/11/22 05:35:50;;;;;;;11.67;9.10;;;5.60;99.90;;;5.42;69.54;94473.53;5044166;28;20621;-56
2022/11/22 05:38:18;;;;;;;14.00;9.80;;;5.60;99.90;;;5.46;69.38;94479.34;5045453;28;20471;-55
2022/11/22 05:40:45;;;;;;;10.70;8.90;;;5.60;99.90;;;5.55;69.69;94476.03;5043099;28;20801;-55
2022/11/22 05:43:12;;;;;;;15.73;10.00;;;5.70;99.90;;;5.67;69.13;94479.44;5046839;28;20486;-56
2022/11/22 05:45:41;;;;;;;16.50;8.90;;;5.70;99.90;;;5.81;68.86;94470.53;5043049;28;20507;-57
2022/11/22 05:48:08;;;;;;;12.87;8.77;;;5.90;99.90;;;5.95;68.61;94472.06;5043478;28;20456;-57
2022/11/22 05:50:35;;;;;;;12.50;8.50;;;6.00;99.90;;;6.13;68.42;94480.25;5047226;28;20796;-56
2022/11/22 05:53:03;;;;;;;13.70;9.17;;;6.10;99.90;;;6.35;68.78;94477.59;5047427;28;20881;-55
2022/11/22 05:55:31;;;;;;;12.37;8.43;;;6.30;99.90;;;6.61;67.96;94475.44;5046637;28;20471;-55
2022/11/22 05:58:00;;;;;;;12.10;9.30;;;6.60;99.90;;;6.90;67.46;94469.63;5046910;28;20448;-57
2022/11/22 06:00:27;;;;;;;9.90;8.00;;;6.90;99.90;;;7.22;67.10;94473.94;5046623;28;20827;-57
2022/11/22 06:03:02;;;;;;;15.80;9.30;;;7.10;99.90;;;7.58;66.20;94473.56;5044833;28;20452;-59
2022/11/22 06:05:29;;;;;;;12.60;8.43;;;7.50;99.90;;;7.95;65.75;94467.75;5046832;28;20499;-56
2022/11/22 06:07:59;;;;;;;17.13;8.60;;;7.90;99.90;;;8.42;64.18;94476.66;5047266;28;20506;-58
2022/11/22 06:10:26;;;;;;;8.93;7.27;;;8.30;99.90;;;8.89;63.64;94464.69;5046208;28;20564;-56
2022/11/22 06:12:53;;;;;;;9.90;7.23;;;8.80;99.90;;;9.38;62.16;94475.13;5046267;28;20464;-56
2022/11/22 06:15:21;;;;;;;9.67;6.17;;;9.20;99.70;;;9.87;62.37;94478.41;5046590;28;21103;-58
2022/11/22 06:17:48;;;;;;;6.53;5.70;;;9.70;99.60;;;10.39;60.75;94477.84;5046694;28;20459;-57
2022/11/22 06:20:17;;;;;;;6.47;5.77;;;10.30;98.00;;;10.91;58.42;94482.47;5043230;28;20625;-56
2022/11/22 06:22:44;;;;;;;6.40;5.37;;;10.90;96.20;;;11.44;56.93;94484.19;5046388;28;20550;-57
2022/11/22 06:25:12;;;;;;;5.90;5.27;;;11.50;94.70;;;11.98;55.38;94477.94;5046296;28;20519;-55
2022/11/22 06:27:39;;;;;;;6.60;5.70;;;12.10;93.50;;;12.47;53.92;94479.88;5046454;28;20452;-58
2022/11/22 06:30:09;;;;;;;8.87;7.87;;;12.60;91.80;;;12.96;54.60;94473.88;5046627;28;21035;-57
2022/11/22 06:32:36;;;;;;;8.30;7.57;;;13.20;92.00;;;13.43;54.96;94471.41;5045030;28;20451;-55
2022/11/22 06:35:03;;;;;;;8.20;7.40;;;13.60;92.40;;;13.83;52.40;94468.84;5046394;28;21003;-55
2022/11/22 06:37:32;;;;;;;8.83;7.93;;;14.00;90.10;;;14.16;50.86;94474.84;5046261;28;20455;-54
2022/11/22 06:39:59;;;;;;;6.47;5.97;;;14.30;86.40;;;14.45;52.56;94477.84;5045866;28;21002;-57
2022/11/22 06:42:27;;;;;;;6.30;5.70;;;14.60;88.30;;;14.73;50.01;94485.34;5045817;28;20459;-56
2022/11/22 06:44:54;;;;;;;6.30;5.53;;;14.90;84.10;;;15.05;47.82;94484.31;5046214;28;20499;-56
2022/11/22 06:47:21;;;;;;;5.33;4.83;;;15.20;79.00;;;15.38;48.83;94487.53;5045615;28;20983;-56
2022/11/22 06:49:48;;;;;;;5.83;5.40;;;15.60;79.80;;;15.73;48.32;94492.34;5045983;28;20505;-56
2022/11/22 06:52:16;;;;;;;8.73;4.37;;;16.00;78.40;;;16.07;49.56;94497.16;5046540;28;20447;-57
2022/11/22 06:54:45;;;;;;;10.07;5.20;;;16.40;81.20;;;16.44;50.30;94490.09;5046220;28;20476;-58
2022/11/22 06:57:14;;;;;;;4.77;4.37;;;16.80;82.80;;;16.85;50.12;94492.22;5045673;28;20967;-57
2022/11/22 06:59:41;;;;;;;7.17;3.23;;;17.20;82.70;;;17.28;49.58;94480.78;5042426;28;20468;-56
2022/11/22 07:02:11;;;;;;;3.50;3.30;;;17.70;81.30;;;17.67;47.38;94484.78;5045178;28;21002;-57
2022/11/22 07:04:38;;;;;;;3.70;3.40;;;18.10;77.10;;;18.03;46.61;94489.16;5045142;28;20487;-56
2022/11/22 07:07:05;;;;;;;4.10;3.70;;;18.50;75.00;;;18.33;47.59;94483.59;5045557;28;20456;-54
2022/11/22 07:09:32;;;;;;;5.27;4.87;;;18.80;75.80;;;18.51;43.85;94483.03;5045360;28;20916;-57
2022/11/22 07:12:02;;;;;;;6.63;4.90;;;19.00;67.70;;;18.57;44.96;94484.91;5045299;28;21365;-55
2022/11/22 07:14:30;;;;;;;7.43;4.93;;;19.10;68.40;;;18.68;44.30;94477.38;5044885;28;20593;-55
2022/11/22 07:16:57;;;;;;;7.80;5.23;;;19.10;68.50;;;18.59;40.75;94482.91;5044874;28;20460;-56
2022/11/22 07:19:24;;;;;;;4.27;3.87;;;18.90;61.70;;;18.14;43.24;94490.47;5044641;28;20514;-52
2022/11/22 07:21:52;;;;;;;4.00;3.70;;;18.50;64.40;;;17.80;44.26;94489.41;5045320;28;21062;-56
2022/11/22 07:24:19;;;;;;;4.17;3.97;;;18.10;65.60;;;17.76;44.62;94493.44;5045399;28;20624;-57
2022/11/22 07:26:46;;;;;;;5.20;4.63;;;17.90;66.90;;;17.84;43.95;94485.31;5045535;28;20452;-57
2022/11/22 07:29:15;;;;;;;5.80;5.20;;;17.80;64.30;;;17.99;43.96;94492.41;5045783;28;20482;-59
2022/11/22 07:31:44;;;;;;;14.73;8.23;;;17.90;66.10;;;18.13;41.37;94483.50;5045666;28;20459;-56
2022/11/22 07:34:12;;;;;;;11.50;9.20;;;18.00;60.90;;;18.17;42.43;94475.91;5045365;28;20464;-55
2022/11/22 07:36:39;;;;;;;12.33;8.63;;;18.00;62.80;;;18.18;42.46;94459.75;5045487;28;20841;-55
2022/11/22 07:39:06;;;;;;;13.73;7.60;;;18.00;62.70;;;18.09;41.82;94461.78;5045224;28;21269;-57
2022/11/22 07:41:34;;;;;;;10.20;7.87;;;17.90;61.50;;;18.13;41.79;94462.19;5041577;28;20551;-57
2022/11/22 07:44:01;;;;;;;10.10;7.50;;;18.00;61.90;;;18.25;41.16;94463.28;5045813;28;20471;-55
2022/11/22 07:46:31;;;;;;;12.17;8.10;;;18.00;60.60;;;18.39;40.46;94445.53;5045410;28;20600;-57
2022/11/22 07:48:59;;;;;;;15.97;9.67;;;18.10;59.30;;;18.36;40.55;94455.75;5042911;28;20537;-56
2022/11/22 07:51:26;;;;;;;15.47;10.60;;;18.10;59.40;;;18.01;40.86;94461.91;5045188;28;20456;-54
2022/11/22 07:53:54;;;;;;;15.40;10.80;;;17.80;59.40;;;17.50;40.60;94460.31;5044951;28;20612;-56
2022/11/22 07:56:22;;;;;;;18.33;10.70;;;17.50;58.50;;;17.05;42.14;94475.66;5045174;28;20456;-57
2022/11/22 07:58:49;;;;;;;16.87;10.80;;;17.10;60.00;;;16.59;42.13;94487.41;5044595;28;20460;-56
2022/11/22 08:01:18;;;;;;;17.67;11.40;;;16.60;59.50;;;16.17;43.32;94477.47;5045327;28;20459;-55
2022/11/22 08:03:46;;;;;;;22.13;12.23;;;16.20;60.90;;;15.85;44.34;94471.53;5044863;28;20472;-54
2022/11/22 08:06:14;;;;;;;23.57;12.80;;;15.80;62.20;;;15.79;44.95;94461.69;5043859;28;20491;-54
2022/11/22 08:08:41;;;;;;;16.37;11.23;;;15.70;64.30;;;16.00;44.79;94467.03;5044872;28;20840;-54
2022/11/22 08:11:09;;;;;;;15.93;12.00;;;15.80;64.90;;;16.28;44.83;94453.97;5046042;28;20456;-58
2022/11/22 08:13:36;;;;;;;18.93;12.93;;;15.90;64.70;;;16.60;44.14;94451.88;5045703;28;20472;-57
2022/11/22 08:16:04;;;;;;;20.13;13.23;;;16.30;64.70;;;17.00;43.51;94447.00;5045124;28;20463;-56
2022/11/22 08:18:31;;;;;;;20.70;12.90;;;16.60;64.10;;;17.46;42.94;94445.78;5045114;28;21008;-56
2022/11/22 08:21:07;;;;;;;21.03;13.33;;;17.00;63.30;;;17.91;41.00;94451.63;5041670;28;21081;-55
2022/11/22 08:23:35;;;;;;;19.53;13.80;;;17.40;61.10;;;18.23;41.68;94457.34;5042525;28;20475;-55
2022/11/22 08:26:02;;;;;;;22.97;14.20;;;17.80;61.20;;;18.43;40.29;94452.09;5046118;28;20496;-56
2022/11/22 08:28:30;;;;;;;22.53;15.90;;;18.00;59.30;;;18.32;40.94;94444.66;5049081;28;20451;-56
2022/11/22 08:31:01;;;;;;;23.17;14.57;;;18.00;58.60;;;17.94;40.79;94447.78;5048819;28;20491;-56
2022/11/22 08:33:29;;;;;;;22.07;14.23;;;17.80;58.10;;;17.42;39.37;94427.75;5048410;28;20979;-55
2022/11/22 08:35:56;;;;;;;17.13;14.50;;;17.40;56.80;;;16.81;42.32;94421.06;5048394;28;20463;-56
2022/11/22 08:38:25;;;;;;;25.93;14.97;;;16.90;59.20;;;16.27;42.99;94422.31;5048318;28;20455;-54
2022/11/22 08:40:52;;;;;;;22.80;15.63;;;16.30;59.70;;;15.71;43.87;94420.94;5048179;28;20786;-57
2022/11/22 08:43:20;;;;;;;21.30;15.97;;;15.80;61.40;;;15.12;44.54;94412.91;5048767;28;20448;-56
2022/11/22 08:45:47;;;;;;;19.30;15.60;;;15.20;61.70;;;14.63;45.54;94398.25;5048831;28;20557;-55
2022/11/22 08:48:15;;;;;;;19.47;14.63;;;14.70;63.40;;;14.19;45.42;94394.34;5048704;28;20490;-56
2022/11/22 08:50:42;;;;;;;24.67;15.43;;;14.20;64.00;;;13.78;46.79;94397.16;5044984;28;20529;-55
2022/11/22 08:53:09;;;;;;;24.60;15.00;;;13.80;65.70;;;13.41;47.65;94409.16;5048086;28;20464;-55
2022/11/22 08:55:38;;;;;;;26.17;16.03;;;13.40;66.30;;;13.08;48.51;94415.28;5048128;28;20494;-56
2022/11/22 08:58:05;;;;;;;21.57;14.60;;;13.20;68.40;;;12.81;48.88;94405.91;5047906;28;20463;-56
2022/11/22 09:00:32;;;;;;;20.10;14.43;;;12.90;69.30;;;12.55;49.41;94396.31;5048404;28;20467;-54
2022/11/22 09:03:00;;;;;;;21.83;14.50;;;12.60;70.30;;;12.31;50.32;94401.56;5044847;28;20478;-55
2022/11/22 09:05:27;;;;;;;20.30;15.23;;;12.40;71.60;;;12.12;50.93;94411.41;5047077;28;20495;-58
2022/11/22 09:07:54;;;;;;;24.20;13.93;;;12.10;73.00;;;11.94;50.92;94400.16;5047766;28;20936;-55
2022/11/22 09:10:22;;;;;;;16.10;12.67;;;12.00;73.60;;;11.78;51.64;94404.34;5048629;28;20492;-56
2022/11/22 09:12:50;;;;;;;22.20;12.87;;;11.80;74.90;;;11.72;52.06;94391.81;5048036;28;20799;-55
2022/11/22 09:15:18;;;;;;;19.63;12.50;;;11.70;76.50;;;11.68;52.23;94394.91;5047854;28;20522;-56
2022/11/22 09:17:45;;;;;;;18.30;13.23;;;11.60;77.30;;;11.60;52.78;94403.59;5047687;28;20452;-57
2022/11/22 09:20:12;;;;;;;18.47;12.30;;;11.60;78.10;;;11.56;53.17;94394.38;5047818;28;20574;-55
2022/11/22 09:22:40;;;;;;;16.93;12.20;;;11.50;79.30;;;11.54;53.19;94391.91;5047811;28;20448;-57
2022/11/22 09:25:08;;;;;;;16.47;13.00;;;11.50;79.70;;;11.58;53.43;94395.88;5047387;28;20484;-55
2022/11/22 09:27:35;;;;;;;16.50;12.03;;;11.50;80.50;;;11.63;53.21;94400.66;5047614;28;20466;-58
2022/11/22 09:30:05;;;;;;;17.23;12.63;;;11.50;80.40;;;11.64;53.03;94403.13;5047354;28;20472;-56
2022/11/22 09:32:32;;;;;;;23.20;12.93;;;11.60;80.70;;;11.63;53.51;94393.59;5046526;28;20456;-56
2022/11/22 09:34:59;;;;;;;17.97;12.53;;;11.60;81.70;;;11.64;53.72;94383.88;5042794;28;20471;-57
2022/11/22 09:37:27;;;;;;;23.70;12.10;;;11.60;82.30;;;11.67;53.53;94380.94;5046752;28;20502;-56
2022/11/22 09:39:54;;;;;;;17.50;12.80;;;11.60;82.30;;;11.68;53.24;94372.06;5046908;28;20491;-56
2022/11/22 09:42:47;;;;;;;19.90;13.50;;;11.60;81.90;;;11.66;53.81;94380.13;5047509;28;20479;-55
2022/11/22 09:45:46;;;;;;;20.97;12.20;;;11.60;82.00;;;11.62;53.38;94376.13;5043502;28;20490;-56
2022/11/22 09:48:30;;;;;;;16.80;12.50;;;11.60;82.50;;;11.51;53.30;94365.03;5043821;28;20458;-54
2022/11/22 09:51:02;;;;;;;18.30;12.23;;;11.50;81.90;;;11.37;54.92;94359.41;5047068;28;20443;-54
2022/11/22 09:53:34;;;;;;;23.43;14.37;;;11.40;85.10;;;11.26;54.36;94363.13;5044155;28;20948;-57
2022/11/22 09:56:04;;;;;;;20.23;14.23;;;11.30;84.20;;;11.20;54.84;94362.91;5043542;28;21335;-56
2022/11/22 09:58:33;;;;;;;18.13;13.77;;;11.20;85.20;;;11.16;54.55;94365.03;5046798;28;20448;-56
2022/11/22 10:01:07;;;;;;;21.73;14.23;;;11.10;85.10;;;11.17;54.73;94357.97;5047279;28;20555;-57
2022/11/22 10:03:42;;;;;;;24.53;14.37;;;11.10;85.80;;;11.24;54.22;94356.38;5046749;28;20447;-57
2022/11/22 10:06:14;;;;;;;15.60;10.80;;;11.10;85.60;;;11.28;54.09;94360.34;5041977;28;20491;-60
2022/11/22 10:08:44;;;;;;;21.20;11.13;;;11.20;85.20;;;11.31;53.47;94354.78;5046995;28;20478;-54
2022/11/22 10:11:19;;;;;;;16.60;10.33;;;11.20;84.20;;;11.33;53.39;94358.06;5046588;28;20467;-55
2022/11/22 10:13:50;;;;;;;16.20;10.57;;;11.20;83.90;;;11.39;53.37;94340.81;5047248;28;20479;-57
2022/11/22 10:16:20;;;;;;;15.27;10.57;;;11.30;84.00;;;11.51;53.53;94331.66;5045174;28;20976;-56
2022/11/22 10:18:54;;;;;;;11.33;8.57;;;11.40;84.50;;;11.91;52.71;94339.81;5043045;28;20464;-56
2022/11/22 10:21:21;;;;;;;17.83;8.60;;;11.70;83.70;;;12.25;51.88;94328.38;5042549;28;20477;-59
2022/11/22 10:23:48;;;;;;;14.47;9.20;;;12.00;82.20;;;12.49;51.62;94331.03;5046151;28;20475;-56
2022/11/22 10:26:22;;;;;;;11.97;8.93;;;12.20;81.90;;;12.76;50.95;94321.13;5046571;28;20491;-56
2022/11/22 10:29:03;;;;;;;15.77;9.53;;;12.50;80.90;;;13.05;50.58;94311.84;5046240;28;20476;-56
2022/11/22 10:31:35;;;;;;;16.57;9.77;;;12.80;80.20;;;13.39;50.50;94308.16;5042564;28;20892;-56
2022/11/22 10:34:11;;;;;;;14.03;10.13;;;13.10;79.90;;;13.69;49.62;94305.69;5045305;28;20468;-56
2022/11/22 10:36:44;;;;;;;10.53;7.87;;;13.40;79.20;;;14.09;49.21;94294.06;5046649;28;20440;-56
2022/11/22 10:39:28;;;;;;;12.53;8.87;;;13.70;78.10;;;14.49;48.01;94286.00;5045495;28;20487;-55
2022/11/22 10:42:19;;;;;;;13.90;10.10;;;14.10;76.70;;;14.85;47.71;94293.31;5044265;28;20952;-54
2022/11/22 10:44:51;;;;;;;13.93;11.13;;;14.50;76.00;;;15.03;47.39;94282.38;5039791;28;20472;-55